Time;durP1;ratioP1;P1;durP2;ratioP2;P2;SDS_P1;SDS_P2;PMS_P1;PMS_P2;Temp;Humidity;BMP_temperature;BMP_pressure;BME280_temperature;BME280_humidity;BME280_pressure;Samples;Min_cycle;Max_cycle;Signal;HPM_P1;HPM_P2
2022/06/01 00:01:20;;;;;;;7.72;2.80;;;21.00;60.80;;;;;;5072662;28;20071;-59
2022/06/01 00:03:46;;;;;;;3.92;2.40;;;21.00;60.80;;;;;;5072360;28;20483;-59
2022/06/01 00:06:12;;;;;;;6.00;2.42;;;21.00;60.80;;;;;;5072200;28;20056;-59
2022/06/01 00:08:37;;;;;;;5.97;2.30;;;21.00;60.70;;;;;;5072185;28;20048;-59
2022/06/01 00:11:03;;;;;;;5.07;2.50;;;21.00;60.80;;;;;;5072475;28;20048;-59
2022/06/01 00:13:29;;;;;;;5.15;2.50;;;21.00;60.80;;;;;;5073009;28;20041;-59
2022/06/01 00:15:55;;;;;;;6.03;2.88;;;21.00;60.80;;;;;;5071921;28;20468;-59
2022/06/01 00:18:22;;;;;;;6.97;2.40;;;21.00;60.70;;;;;;5072959;28;20113;-60
2022/06/01 00:20:48;;;;;;;5.10;2.47;;;21.00;60.80;;;;;;5071896;28;20056;-60
2022/06/01 00:23:13;;;;;;;6.07;2.17;;;21.00;60.80;;;;;;5071885;28;20487;-60
2022/06/01 00:25:39;;;;;;;5.93;2.63;;;21.00;60.80;;;;;;5072778;28;20546;-59
2022/06/01 00:28:05;;;;;;;5.53;2.92;;;20.90;60.70;;;;;;5072941;28;20045;-60
2022/06/01 00:30:32;;;;;;;5.30;2.10;;;20.90;60.70;;;;;;5072005;28;20048;-60
2022/06/01 00:32:57;;;;;;;5.07;2.08;;;20.90;60.70;;;;;;5071952;28;20036;-60
2022/06/01 00:35:23;;;;;;;5.50;2.40;;;20.90;60.70;;;;;;5072263;28;20111;-60
2022/06/01 00:37:49;;;;;;;4.60;2.42;;;20.90;60.70;;;;;;5071508;28;20053;-60
2022/06/01 00:40:15;;;;;;;4.28;2.13;;;20.90;60.70;;;;;;5071726;28;20115;-59
2022/06/01 00:42:44;;;;;;;4.13;2.08;;;20.90;60.70;;;;;;5071825;28;20476;-60
2022/06/01 00:45:11;;;;;;;4.85;2.40;;;20.90;61.40;;;;;;5072189;28;20434;-60
2022/06/01 00:47:36;;;;;;;4.90;2.03;;;20.90;60.80;;;;;;5072334;28;20040;-59
2022/06/01 00:50:12;;;;;;;4.45;2.35;;;20.90;60.80;;;;;;5071376;28;20074;-59
2022/06/01 00:52:40;;;;;;;4.68;2.30;;;20.90;60.80;;;;;;5072550;28;20161;-60
2022/06/01 00:55:06;;;;;;;4.97;2.20;;;20.90;60.70;;;;;;5072543;28;20040;-59
2022/06/01 00:57:32;;;;;;;4.53;2.13;;;20.90;60.70;;;;;;5071696;28;20048;-60
2022/06/01 00:59:57;;;;;;;4.15;2.30;;;20.90;60.70;;;;;;5070732;28;20487;-60
2022/06/01 01:02:23;;;;;;;5.88;2.75;;;20.90;60.80;;;;;;5071241;28;20076;-60
2022/06/01 01:04:48;;;;;;;4.28;2.35;;;20.90;60.70;;;;;;5071310;28;20049;-60
2022/06/01 01:07:14;;;;;;;4.28;2.30;;;20.90;60.70;;;;;;5071067;28;20044;-60
2022/06/01 01:09:40;;;;;;;5.47;2.47;;;20.90;60.70;;;;;;5070914;28;20048;-60
2022/06/01 01:12:07;;;;;;;4.32;2.05;;;20.80;60.70;;;;;;5071133;28;20041;-60
2022/06/01 01:14:34;;;;;;;4.10;2.10;;;20.80;60.60;;;;;;5071955;28;20559;-60
2022/06/01 01:17:01;;;;;;;5.17;2.53;;;20.90;60.70;;;;;;5071823;28;20050;-60
2022/06/01 01:19:39;;;;;;;4.72;2.30;;;20.80;60.60;;;;;;5071144;28;20480;-60
2022/06/01 01:22:36;;;;;;;4.22;2.30;;;20.80;60.60;;;;;;5070795;28;20110;-60
2022/06/01 01:25:25;;;;;;;3.97;2.10;;;20.80;60.60;;;;;;5071077;28;20105;-60
2022/06/01 01:27:52;;;;;;;4.25;2.13;;;20.80;60.70;;;;;;5070170;28;20496;-60
2022/06/01 01:30:35;;;;;;;5.77;2.47;;;20.80;60.70;;;;;;5072160;28;20039;-60
2022/06/01 01:33:05;;;;;;;4.68;2.20;;;20.80;60.60;;;;;;5071127;28;20051;-60
2022/06/01 01:35:31;;;;;;;4.82;2.20;;;20.80;60.70;;;;;;5074568;28;20055;-60
2022/06/01 01:37:57;;;;;;;5.72;2.55;;;20.80;60.70;;;;;;5075743;28;20040;-60
2022/06/01 01:40:25;;;;;;;3.65;1.92;;;20.80;60.70;;;;;;5073807;28;20060;-59
2022/06/01 01:42:52;;;;;;;;;;;20.80;60.70;;;;;;5075721;28;20045;-59
2022/06/01 01:45:23;;;;;;;4.53;2.45;;;20.70;60.60;;;;;;5074275;28;20265;-60
2022/06/01 01:47:50;;;;;;;4.72;2.03;;;20.70;60.70;;;;;;5073436;28;20040;-59
2022/06/01 01:50:15;;;;;;;4.85;2.30;;;20.70;60.70;;;;;;5075921;28;20036;-60
2022/06/01 01:52:41;;;;;;;4.80;2.17;;;20.70;60.70;;;;;;5074056;28;20052;-60
2022/06/01 01:55:34;;;;;;;4.95;2.35;;;20.70;60.70;;;;;;5074753;28;20438;-59
2022/06/01 01:58:11;;;;;;;4.28;2.15;;;20.80;60.70;;;;;;5073839;28;20342;-59
2022/06/01 02:00:39;;;;;;;4.03;1.90;;;20.70;60.70;;;;;;5073225;28;20091;-59
2022/06/01 02:03:29;;;;;;;5.28;2.10;;;20.70;60.70;;;;;;5094294;28;20506;-59
2022/06/01 02:06:23;;;;;;;3.85;2.20;;;20.70;60.70;;;;;;5093559;28;20028;-59
2022/06/01 02:08:53;;;;;;;4.07;2.00;;;20.70;60.60;;;;;;5093283;28;20165;-60
2022/06/01 02:14:32;;;;;;;3.33;1.80;;;20.70;60.70;;;;;;5094287;28;20135;-59
2022/06/01 02:17:07;;;;;;;3.40;1.88;;;20.70;60.70;;;;;;5095361;28;20044;-59
2022/06/01 02:19:39;;;;;;;3.38;2.08;;;20.70;60.70;;;;;;5095545;28;20051;-59
2022/06/01 02:22:05;;;;;;;4.43;2.40;;;20.70;60.80;;;;;;5094110;28;20135;-60
2022/06/01 02:24:31;;;;;;;4.47;2.20;;;20.70;60.70;;;;;;5095446;28;20048;-60
2022/06/01 02:26:56;;;;;;;3.85;2.08;;;20.70;60.60;;;;;;5093755;28;20119;-60
2022/06/01 02:29:26;;;;;;;3.60;2.03;;;20.70;60.70;;;;;;5093199;28;20044;-60
2022/06/01 02:31:52;;;;;;;3.95;1.80;;;20.70;60.70;;;;;;5077326;28;20049;-60
2022/06/01 02:34:17;;;;;;;3.45;1.70;;;20.60;60.70;;;;;;5076880;28;20044;-60
2022/06/01 02:36:43;;;;;;;3.30;2.05;;;20.60;61.30;;;;;;5075667;28;20147;-59
2022/06/01 02:39:09;;;;;;;3.25;2.00;;;20.70;60.70;;;;;;5094775;28;20079;-60
2022/06/01 02:44:19;;;;;;;3.90;1.95;;;20.60;60.80;;;;;;5079624;28;20080;-60
2022/06/01 02:46:45;;;;;;;3.22;1.73;;;20.60;60.70;;;;;;5073212;28;20121;-60
2022/06/01 02:49:11;;;;;;;4.60;1.70;;;20.60;60.80;;;;;;5074623;28;20048;-59
2022/06/01 02:51:36;;;;;;;3.95;2.13;;;20.70;60.80;;;;;;5073499;28;20033;-59
2022/06/01 02:54:02;;;;;;;3.20;1.98;;;20.60;61.40;;;;;;5074007;28;20182;-60
2022/06/01 02:56:28;;;;;;;3.88;1.70;;;20.60;60.80;;;;;;5073831;28;20041;-60
2022/06/01 02:58:53;;;;;;;4.93;2.08;;;20.60;60.80;;;;;;5073333;28;20049;-60
2022/06/01 03:01:19;;;;;;;3.50;1.83;;;20.60;60.80;;;;;;5074387;28;20415;-59
2022/06/01 03:03:45;;;;;;;3.33;1.90;;;20.60;60.80;;;;;;5073185;28;20167;-59
2022/06/01 03:06:10;;;;;;;3.83;1.95;;;20.60;60.80;;;;;;5073056;28;20080;-60
2022/06/01 03:08:36;;;;;;;3.22;2.03;;;20.60;60.80;;;;;;5074281;28;20488;-60
2022/06/01 03:11:02;;;;;;;3.67;2.15;;;20.60;60.80;;;;;;5072522;28;20137;-60
2022/06/01 03:13:27;;;;;;;3.33;1.90;;;20.60;60.80;;;;;;5074037;28;20041;-59
2022/06/01 03:15:53;;;;;;;3.92;1.92;;;20.60;60.80;;;;;;5073960;28;20429;-60
2022/06/01 03:18:18;;;;;;;3.72;2.10;;;20.60;60.80;;;;;;5073167;28;20048;-60
2022/06/01 03:20:44;;;;;;;2.88;1.90;;;20.60;60.80;;;;;;5073492;28;20044;-60
2022/06/01 03:23:10;;;;;;;4.43;2.13;;;20.60;60.80;;;;;;5073828;28;20048;-59
2022/06/01 03:25:39;;;;;;;4.47;2.05;;;20.60;60.80;;;;;;5073133;28;20469;-59
2022/06/01 03:28:05;;;;;;;2.72;1.88;;;20.60;60.80;;;;;;5073271;28;20476;-60
2022/06/01 03:30:31;;;;;;;4.35;2.00;;;20.60;60.70;;;;;;5073274;28;20044;-60
2022/06/01 03:32:57;;;;;;;3.83;2.08;;;20.50;60.70;;;;;;5072531;28;20040;-59
2022/06/01 03:35:23;;;;;;;4.10;2.15;;;20.50;60.70;;;;;;5073703;28;20045;-60
2022/06/01 03:37:49;;;;;;;2.75;1.90;;;20.50;60.80;;;;;;5073534;28;20045;-58
2022/06/01 03:40:15;;;;;;;3.22;2.00;;;20.50;60.80;;;;;;5072336;28;20032;-57
2022/06/01 03:42:41;;;;;;;3.30;2.15;;;20.50;60.80;;;;;;5073424;28;20068;-59
2022/06/01 03:47:51;;;;;;;4.60;2.00;;;20.50;60.90;;;;;;5072062;28;20495;-58
2022/06/01 03:50:17;;;;;;;2.92;1.80;;;20.50;60.90;;;;;;5073330;28;20087;-58
2022/06/01 03:52:45;;;;;;;2.50;1.80;;;20.50;60.90;;;;;;5072404;28;20123;-59
2022/06/01 03:55:10;;;;;;;3.00;1.63;;;20.50;60.90;;;;;;5073440;28;20044;-58
2022/06/01 03:57:36;;;;;;;2.58;1.98;;;20.50;60.80;;;;;;5072754;28;20095;-59
2022/06/01 04:00:06;;;;;;;2.50;1.77;;;20.50;60.90;;;;;;5072161;28;20044;-59
2022/06/01 04:02:32;;;;;;;3.58;1.85;;;20.50;60.90;;;;;;5063508;28;20162;-59
2022/06/01 04:04:58;;;;;;;3.13;1.80;;;20.50;60.80;;;;;;5071450;28;20082;-59
2022/06/01 04:07:24;;;;;;;2.95;1.98;;;20.50;60.80;;;;;;5071957;28;20048;-59
2022/06/01 04:09:50;;;;;;;3.63;2.22;;;20.50;60.80;;;;;;5072836;28;20044;-59
2022/06/01 04:12:15;;;;;;;2.92;1.77;;;20.50;60.80;;;;;;5072738;28;20040;-59
2022/06/01 04:14:41;;;;;;;3.42;2.30;;;20.50;60.80;;;;;;5071770;28;20051;-59
2022/06/01 04:17:07;;;;;;;3.15;1.80;;;20.50;61.40;;;;;;5071549;28;20051;-59
2022/06/01 04:19:32;;;;;;;3.25;1.90;;;20.50;60.80;;;;;;5072921;28;20396;-59
2022/06/01 04:21:58;;;;;;;3.38;2.20;;;20.40;60.80;;;;;;5070897;28;20048;-59
2022/06/01 04:24:27;;;;;;;2.47;1.65;;;20.40;60.80;;;;;;5072658;28;20049;-60
2022/06/01 04:26:52;;;;;;;4.18;1.98;;;20.40;60.80;;;;;;5067158;28;20045;-59
2022/06/01 04:29:18;;;;;;;2.85;1.80;;;20.40;60.80;;;;;;5051687;28;20399;-59
2022/06/01 04:31:44;;;;;;;2.25;1.70;;;20.40;60.70;;;;;;5051748;28;20091;-59
2022/06/01 04:34:09;;;;;;;2.92;1.83;;;20.40;60.80;;;;;;5051181;28;20045;-59
2022/06/01 04:36:35;;;;;;;3.40;1.77;;;20.40;60.90;;;;;;5051988;28;20041;-59
2022/06/01 04:39:01;;;;;;;3.47;1.88;;;20.40;60.90;;;;;;5052269;28;20053;-59
2022/06/01 04:41:26;;;;;;;2.63;1.83;;;20.40;60.90;;;;;;5071548;28;20115;-59
2022/06/01 04:43:52;;;;;;;2.85;1.55;;;20.40;60.80;;;;;;5069409;28;20052;-59
2022/06/01 04:46:17;;;;;;;2.58;1.70;;;20.40;60.90;;;;;;5072264;28;20127;-59
2022/06/01 04:48:43;;;;;;;2.80;1.90;;;20.40;60.90;;;;;;5072260;28;20479;-59
2022/06/01 04:51:08;;;;;;;3.50;1.92;;;20.40;60.90;;;;;;5071662;28;20397;-59
2022/06/01 04:53:34;;;;;;;4.05;2.25;;;20.40;60.90;;;;;;5072633;28;20071;-59
2022/06/01 04:55:59;;;;;;;3.13;1.70;;;20.40;60.90;;;;;;5071493;28;20044;-59
2022/06/01 04:58:25;;;;;;;2.38;1.70;;;20.40;61.00;;;;;;5071828;28;20044;-58
2022/06/01 05:00:50;;;;;;;2.25;1.60;;;20.40;61.00;;;;;;5071830;28;20041;-58
2022/06/01 05:03:16;;;;;;;3.40;1.90;;;20.40;61.00;;;;;;5071716;28;20048;-59
2022/06/01 05:05:42;;;;;;;3.35;1.95;;;20.40;60.90;;;;;;5071935;28;20139;-58
2022/06/01 05:08:09;;;;;;;3.58;1.77;;;20.40;60.90;;;;;;5072486;28;20090;-59
2022/06/01 05:10:34;;;;;;;4.95;1.70;;;20.40;60.80;;;;;;5074455;28;20040;-58
2022/06/01 05:13:00;;;;;;;3.58;2.00;;;20.40;60.80;;;;;;5075907;28;20051;-58
2022/06/01 05:15:25;;;;;;;2.78;1.75;;;20.40;60.90;;;;;;5076391;28;20529;-59
2022/06/01 05:17:51;;;;;;;2.75;1.88;;;20.40;60.90;;;;;;5075376;28;20045;-59
2022/06/01 05:20:16;;;;;;;2.45;1.60;;;20.40;60.90;;;;;;5075442;28;20536;-59
2022/06/01 05:22:42;;;;;;;3.45;1.70;;;20.40;61.00;;;;;;5075346;28;20052;-59
2022/06/01 05:25:08;;;;;;;2.75;1.65;;;20.40;61.10;;;;;;5075040;28;20044;-61
2022/06/01 05:27:34;;;;;;;3.65;1.88;;;20.40;61.00;;;;;;5075899;28;20400;-59
2022/06/01 05:30:00;;;;;;;5.32;2.10;;;20.40;61.00;;;;;;5075700;28;20496;-60
2022/06/01 05:32:26;;;;;;;3.50;1.88;;;20.40;61.10;;;;;;5075040;28;20472;-61
2022/06/01 05:34:52;;;;;;;4.28;2.47;;;20.50;61.20;;;;;;5075539;28;20563;-60
2022/06/01 05:37:17;;;;;;;3.90;1.80;;;20.50;61.10;;;;;;5075636;28;20147;-60
2022/06/01 05:39:43;;;;;;;3.92;2.05;;;20.50;61.00;;;;;;5074728;28;20122;-59
2022/06/01 05:42:08;;;;;;;3.92;2.00;;;20.50;60.90;;;;;;5075783;28;20139;-58
2022/06/01 05:44:34;;;;;;;3.92;2.00;;;20.50;60.90;;;;;;5075074;28;20037;-59
2022/06/01 05:47:03;;;;;;;6.78;2.35;;;20.60;61.00;;;;;;5074803;28;20130;-62
2022/06/01 05:49:28;;;;;;;4.80;1.83;;;20.60;60.90;;;;;;5075422;28;20123;-59
2022/06/01 05:51:54;;;;;;;7.30;2.42;;;20.60;61.10;;;;;;5075336;28;20111;-59
2022/06/01 05:54:20;;;;;;;4.53;2.15;;;20.60;61.10;;;;;;5074737;28;20404;-59
2022/06/01 05:56:46;;;;;;;4.60;1.85;;;20.60;61.10;;;;;;5075054;28;20044;-59
2022/06/01 05:59:12;;;;;;;5.05;2.33;;;20.70;61.10;;;;;;5074581;28;20036;-59
2022/06/01 06:01:38;;;;;;;4.07;1.90;;;20.70;61.30;;;;;;5075348;28;20040;-60
2022/06/01 06:04:04;;;;;;;3.97;2.15;;;20.70;61.30;;;;;;5074957;28;20040;-59
2022/06/01 06:06:29;;;;;;;3.63;1.70;;;20.70;61.30;;;;;;5074256;28;20447;-59
2022/06/01 06:09:02;;;;;;;5.72;2.10;;;20.80;61.30;;;;;;5075011;28;20480;-59
2022/06/01 06:11:29;;;;;;;4.18;1.70;;;20.80;61.40;;;;;;5075170;28;20404;-59
2022/06/01 06:13:55;;;;;;;4.90;1.67;;;20.80;61.40;;;;;;5073837;28;20044;-59
2022/06/01 06:16:21;;;;;;;3.58;1.70;;;20.80;61.40;;;;;;5073745;28;20036;-58
2022/06/01 06:18:46;;;;;;;3.58;1.90;;;20.80;61.60;;;;;;5073380;28;20032;-59
2022/06/01 06:21:12;;;;;;;7.72;2.33;;;20.90;61.80;;;;;;5072511;28;20088;-59
2022/06/01 06:23:38;;;;;;;4.20;1.83;;;20.90;62.50;;;;;;5073560;28;20090;-59
2022/06/01 06:26:03;;;;;;;4.13;2.13;;;20.90;61.90;;;;;;5074342;28;20075;-60
2022/06/01 06:28:29;;;;;;;3.47;1.83;;;21.00;62.00;;;;;;5072968;28;20045;-59
2022/06/01 06:30:55;;;;;;;4.30;1.70;;;21.00;62.00;;;;;;5074250;28;20040;-59
2022/06/01 06:33:20;;;;;;;4.28;1.92;;;21.00;62.10;;;;;;5074700;28;20044;-60
2022/06/01 06:35:46;;;;;;;3.58;1.88;;;21.10;62.20;;;;;;5073452;28;20039;-59
2022/06/01 06:38:11;;;;;;;4.57;1.90;;;21.10;62.30;;;;;;5073216;28;20569;-59
2022/06/01 06:40:37;;;;;;;3.58;1.75;;;21.10;62.50;;;;;;5074646;28;20047;-59
2022/06/01 06:43:04;;;;;;;3.95;1.65;;;21.10;62.50;;;;;;5073112;28;20055;-59
2022/06/01 06:45:29;;;;;;;2.65;1.67;;;21.10;62.40;;;;;;5074289;28;20052;-59
2022/06/01 06:47:58;;;;;;;6.25;1.77;;;21.20;62.40;;;;;;5074266;28;20391;-59
2022/06/01 06:50:24;;;;;;;3.17;1.70;;;21.20;62.50;;;;;;5074033;28;20036;-58
2022/06/01 06:52:49;;;;;;;4.60;1.52;;;21.20;62.50;;;;;;5074032;28;20488;-59
2022/06/01 06:55:15;;;;;;;3.90;1.95;;;21.20;62.50;;;;;;5074532;28;20036;-59
2022/06/01 06:57:41;;;;;;;3.58;1.50;;;21.20;62.50;;;;;;5072500;28;20052;-59
2022/06/01 07:00:08;;;;;;;6.93;2.10;;;21.20;62.40;;;;;;5074189;28;20043;-61
2022/06/01 07:02:34;;;;;;;5.00;1.90;;;21.30;62.40;;;;;;5072386;28;20055;-58
2022/06/01 07:04:59;;;;;;;5.45;1.80;;;21.30;62.40;;;;;;5070746;28;20044;-59
2022/06/01 07:07:25;;;;;;;6.85;1.63;;;21.30;62.50;;;;;;5073941;28;20426;-58
2022/06/01 07:09:50;;;;;;;4.22;1.27;;;21.30;62.60;;;;;;5072879;28;20075;-58
2022/06/01 07:12:16;;;;;;;3.83;1.60;;;21.30;62.70;;;;;;5073334;28;20052;-58
2022/06/01 07:14:42;;;;;;;7.05;1.85;;;21.30;63.30;;;;;;5073211;28;20535;-60
2022/06/01 07:17:07;;;;;;;2.47;1.45;;;21.30;62.70;;;;;;5073193;28;20044;-58
2022/06/01 07:19:33;;;;;;;5.80;1.95;;;21.30;62.70;;;;;;5073764;28;20040;-59
2022/06/01 07:21:59;;;;;;;4.03;1.60;;;21.30;62.70;;;;;;5073283;28;20048;-60
2022/06/01 07:24:24;;;;;;;4.90;2.38;;;21.40;62.80;;;;;;5072111;28;20041;-59
2022/06/01 07:26:50;;;;;;;6.88;2.60;;;21.30;62.50;;;;;;5073064;28;20044;-59
2022/06/01 07:29:18;;;;;;;7.15;2.78;;;21.30;62.10;;;;;;5073169;28;20425;-59
2022/06/01 07:31:44;;;;;;;6.32;2.90;;;21.30;61.60;;;;;;5071412;28;20407;-58
2022/06/01 07:34:09;;;;;;;6.35;2.60;;;21.30;61.30;;;;;;5073201;28;20518;-58
2022/06/01 07:36:35;;;;;;;5.90;2.83;;;21.30;61.20;;;;;;5065404;28;20108;-58
2022/06/01 07:44:20;;;;;;;6.75;1.50;;;21.30;61.30;;;;;;5053180;28;20086;-58
2022/06/01 07:46:46;;;;;;;4.88;1.63;;;21.30;61.40;;;;;;5052421;28;20037;-59
2022/06/01 07:49:11;;;;;;;3.75;1.70;;;21.40;61.40;;;;;;5052914;28;20095;-58
2022/06/01 07:51:37;;;;;;;3.03;1.70;;;21.40;61.40;;;;;;5053269;28;20037;-59
2022/06/01 07:54:06;;;;;;;11.55;1.77;;;21.40;61.40;;;;;;5052050;28;20132;-58
2022/06/01 07:56:31;;;;;;;5.78;1.70;;;21.40;61.90;;;;;;5052934;28;20048;-59
2022/06/01 07:58:57;;;;;;;4.13;1.40;;;21.40;61.50;;;;;;5051980;28;20059;-58
2022/06/01 08:01:26;;;;;;;3.83;1.38;;;21.40;61.60;;;;;;5060173;28;20051;-58
2022/06/01 08:03:58;;;;;;;6.32;1.80;;;21.40;61.60;;;;;;5072068;28;20119;-58
2022/06/01 08:06:25;;;;;;;3.42;1.58;;;21.40;61.70;;;;;;5071613;28;20080;-57
2022/06/01 08:08:51;;;;;;;6.00;1.65;;;21.50;61.80;;;;;;5071599;28;20036;-58
2022/06/01 08:11:16;;;;;;;3.30;1.40;;;21.50;61.80;;;;;;5055015;28;20037;-61
2022/06/01 08:13:42;;;;;;;6.13;1.63;;;21.50;61.90;;;;;;5051838;28;20048;-59
2022/06/01 08:16:07;;;;;;;2.60;1.55;;;21.60;61.90;;;;;;5052547;28;20052;-58
2022/06/01 08:18:33;;;;;;;5.88;1.45;;;21.60;61.80;;;;;;5052732;28;20106;-58
2022/06/01 08:20:59;;;;;;;3.35;1.38;;;21.60;61.70;;;;;;5051273;28;20057;-58
2022/06/01 08:23:27;;;;;;;2.35;1.40;;;21.60;61.70;;;;;;5072389;28;20075;-58
2022/06/01 08:25:53;;;;;;;3.80;1.23;;;21.60;61.60;;;;;;5072629;28;20051;-58
2022/06/01 08:28:18;;;;;;;2.28;1.30;;;21.60;61.50;;;;;;5072005;28;20041;-58
2022/06/01 08:30:44;;;;;;;4.85;1.50;;;21.60;61.50;;;;;;5071727;28;20067;-58
2022/06/01 08:33:10;;;;;;;3.40;1.55;;;21.70;61.50;;;;;;5072595;28;20040;-58
2022/06/01 08:35:37;;;;;;;4.40;1.60;;;21.60;61.40;;;;;;5071953;28;20046;-58
2022/06/01 08:38:03;;;;;;;2.72;1.85;;;21.70;61.40;;;;;;5071969;28;20060;-58
2022/06/01 08:40:34;;;;;;;4.97;1.92;;;21.60;61.30;;;;;;5072610;28;20093;-58
2022/06/01 08:43:09;;;;;;;7.38;2.65;;;21.60;61.10;;;;;;5071656;28;20053;-58
2022/06/01 08:45:35;;;;;;;2.65;1.80;;;21.60;60.90;;;;;;5071997;28;20493;-58
2022/06/01 08:48:01;;;;;;;5.03;2.33;;;21.60;60.50;;;;;;5069893;28;20131;-59
2022/06/01 08:50:31;;;;;;;5.78;1.98;;;21.60;60.10;;;;;;5072552;28;20036;-59
2022/06/01 08:52:59;;;;;;;4.18;2.20;;;21.60;59.60;;;;;;5072275;28;20044;-59
2022/06/01 08:55:25;;;;;;;3.47;2.17;;;21.50;59.40;;;;;;5071646;28;20064;-58
2022/06/01 08:57:58;;;;;;;5.38;2.22;;;21.50;59.40;;;;;;5071182;28;20065;-59
2022/06/01 09:00:25;;;;;;;3.95;1.83;;;21.40;59.30;;;;;;5054409;28;20156;-59
2022/06/01 09:03:02;;;;;;;5.32;2.22;;;21.40;59.20;;;;;;5070593;28;20094;-59
2022/06/01 09:05:37;;;;;;;3.47;1.75;;;21.40;59.10;;;;;;5072306;28;20055;-58
2022/06/01 09:08:10;;;;;;;5.40;1.95;;;21.40;59.10;;;;;;5071997;28;20074;-59
2022/06/01 09:11:01;;;;;;;5.13;1.67;;;21.40;59.30;;;;;;5070587;28;20041;-58
2022/06/01 09:13:39;;;;;;;3.75;1.50;;;21.40;59.40;;;;;;5071077;28;20048;-58
2022/06/01 09:16:15;;;;;;;3.10;1.60;;;21.30;59.60;;;;;;5070799;28;20040;-58
2022/06/01 09:18:44;;;;;;;3.90;1.40;;;21.30;59.60;;;;;;5048498;28;20056;-58
2022/06/01 09:24:03;;;;;;;4.03;1.83;;;21.30;59.80;;;;;;5050866;28;19942;-58
2022/06/01 09:26:29;;;;;;;3.78;1.85;;;21.30;60.00;;;;;;5051632;28;20057;-58
2022/06/01 09:28:57;;;;;;;2.53;1.45;;;21.30;60.00;;;;;;5051504;28;20476;-58
2022/06/01 09:31:42;;;;;;;4.18;1.60;;;21.30;60.00;;;;;;5051176;28;20125;-58
2022/06/01 09:34:44;;;;;;;4.60;1.52;;;21.30;60.10;;;;;;5050827;28;20053;-58
2022/06/01 09:37:27;;;;;;;5.53;1.90;;;21.30;60.20;;;;;;5045912;28;20053;-58
2022/06/01 09:39:55;;;;;;;4.57;1.60;;;21.20;60.20;;;;;;5051694;28;20378;-60
2022/06/01 09:42:34;;;;;;;4.25;1.73;;;21.20;60.10;;;;;;5052228;28;20048;-57
2022/06/01 09:45:01;;;;;;;4.68;1.50;;;21.20;59.90;;;;;;5050869;28;20048;-57
2022/06/01 09:47:37;;;;;;;9.75;1.60;;;21.20;60.00;;;;;;5051301;28;20063;-59
2022/06/01 09:50:05;;;;;;;7.72;1.90;;;21.20;60.10;;;;;;5055625;28;20075;-58
2022/06/01 09:52:35;;;;;;;5.20;1.88;;;21.20;60.20;;;;;;5070485;28;20047;-58
2022/06/01 09:55:19;;;;;;;3.63;1.58;;;21.20;60.40;;;;;;5070292;28;20052;-58
2022/06/01 09:57:55;;;;;;;8.98;2.08;;;21.30;60.60;;;;;;5075074;28;20510;-59
2022/06/01 10:06:09;;;;;;;5.50;1.63;;;21.30;60.90;;;;;;5071270;28;20048;-59
2022/06/01 10:08:42;;;;;;;7.70;1.65;;;21.40;61.00;;;;;;5075035;28;20056;-58
2022/06/01 10:11:31;;;;;;;6.75;1.58;;;21.40;61.00;;;;;;5073759;28;20049;-58
2022/06/01 10:14:25;;;;;;;4.10;1.65;;;21.40;61.10;;;;;;5073233;28;20083;-58
2022/06/01 10:17:01;;;;;;;2.83;1.20;;;21.50;61.20;;;;;;5073016;28;20053;-58
2022/06/01 10:19:37;;;;;;;3.10;1.33;;;21.50;61.20;;;;;;5074402;28;20040;-58
2022/06/01 10:22:19;;;;;;;3.15;1.27;;;21.50;61.30;;;;;;5053184;28;20049;-58
2022/06/01 10:24:56;;;;;;;4.55;1.50;;;21.50;61.30;;;;;;5072697;28;20510;-59
2022/06/01 10:27:30;;;;;;;3.33;1.20;;;21.60;61.40;;;;;;5072016;28;20041;-59
2022/06/01 10:30:05;;;;;;;4.70;1.30;;;21.60;61.40;;;;;;5073246;28;20045;-58
2022/06/01 10:32:36;;;;;;;3.60;1.15;;;21.60;61.40;;;;;;5072047;28;20037;-58
2022/06/01 10:35:09;;;;;;;6.47;1.45;;;21.50;61.30;;;;;;5072558;28;20052;-58
2022/06/01 10:37:56;;;;;;;4.97;1.50;;;21.50;61.40;;;;;;5074827;28;20045;-58
2022/06/01 10:40:38;;;;;;;2.75;1.10;;;21.50;61.50;;;;;;5073361;28;20059;-58
2022/06/01 10:43:17;;;;;;;3.88;1.40;;;21.50;61.60;;;;;;5074570;28;20045;-58
2022/06/01 10:45:47;;;;;;;4.90;1.40;;;21.50;61.60;;;;;;5073073;28;20051;-58
2022/06/01 10:48:20;;;;;;;3.15;1.38;;;21.50;61.60;;;;;;5073707;28;20040;-58
2022/06/01 10:51:01;;;;;;;3.33;1.30;;;21.50;61.60;;;;;;5072486;28;20430;-58
2022/06/01 10:53:53;;;;;;;4.22;1.40;;;21.50;61.60;;;;;;5073569;28;20076;-59
2022/06/01 10:56:20;;;;;;;5.28;1.23;;;21.60;61.80;;;;;;5072804;28;20106;-59
2022/06/01 10:58:46;;;;;;;4.78;1.42;;;21.60;61.80;;;;;;5072884;28;20048;-58
2022/06/01 11:01:38;;;;;;;4.05;1.52;;;21.60;61.70;;;;;;5071883;28;20037;-58
2022/06/01 11:04:35;;;;;;;4.35;1.60;;;21.60;61.80;;;;;;5051472;28;20123;-58
2022/06/01 11:07:09;;;;;;;5.32;1.70;;;21.60;61.80;;;;;;5071380;28;20097;-58
2022/06/01 11:10:12;;;;;;;10.82;2.38;;;21.60;61.80;;;;;;5071946;28;20491;-59
2022/06/01 11:13:05;;;;;;;8.30;2.70;;;21.60;61.90;;;;;;5073992;28;20094;-59
2022/06/01 11:15:56;;;;;;;6.03;2.45;;;21.70;62.00;;;;;;5063371;28;20049;-59
2022/06/01 11:18:43;;;;;;;11.20;2.95;;;21.70;62.00;;;;;;5071841;28;20048;-59
2022/06/01 11:21:41;;;;;;;11.20;3.15;;;21.70;62.10;;;;;;5073539;28;20052;-58
2022/06/01 11:24:18;;;;;;;8.60;3.05;;;21.70;62.10;;;;;;5072111;28;20048;-59
2022/06/01 11:27:02;;;;;;;8.05;2.70;;;21.70;62.10;;;;;;5073347;28;20046;-58
2022/06/01 11:29:59;;;;;;;6.43;2.38;;;21.80;62.20;;;;;;5072005;28;20055;-57
2022/06/01 11:32:49;;;;;;;10.15;2.78;;;21.70;62.10;;;;;;5070887;28;20483;-58
2022/06/01 11:35:35;;;;;;;7.53;2.85;;;21.70;62.20;;;;;;5061529;28;20044;-58
2022/06/01 11:38:13;;;;;;;8.30;2.67;;;21.70;62.20;;;;;;5070228;28;20132;-58
2022/06/01 11:40:57;;;;;;;9.30;3.22;;;21.70;62.30;;;;;;5073327;28;20048;-58
2022/06/01 11:43:35;;;;;;;8.63;2.78;;;21.60;62.20;;;;;;5071900;28;20101;-58
2022/06/01 11:46:21;;;;;;;10.57;2.60;;;21.60;62.30;;;;;;5071243;28;20050;-58
2022/06/01 11:48:57;;;;;;;8.23;2.67;;;21.60;62.20;;;;;;5073151;28;20052;-57
2022/06/01 11:51:44;;;;;;;9.48;2.50;;;21.50;62.10;;;;;;5071082;28;20048;-58
2022/06/01 11:54:10;;;;;;;8.32;2.42;;;21.60;62.10;;;;;;5072947;28;20045;-58
2022/06/01 11:56:45;;;;;;;6.88;2.58;;;21.50;62.20;;;;;;5073456;28;20089;-58
2022/06/01 11:59:20;;;;;;;8.60;2.28;;;21.50;62.20;;;;;;5072437;28;20044;-58
2022/06/01 12:01:48;;;;;;;7.13;2.35;;;21.50;62.20;;;;;;5072409;28;20049;-58
2022/06/01 12:04:38;;;;;;;9.23;2.30;;;21.40;62.10;;;;;;5072365;28;20045;-58
2022/06/01 12:07:08;;;;;;;13.07;2.47;;;21.40;62.20;;;;;;5072014;28;20085;-59
2022/06/01 12:10:06;;;;;;;12.25;3.22;;;21.40;62.20;;;;;;5071957;28;20045;-59
2022/06/01 12:12:34;;;;;;;8.90;2.05;;;21.50;62.20;;;;;;5072044;28;20488;-58
2022/06/01 12:15:03;;;;;;;10.68;1.92;;;21.40;62.10;;;;;;5072335;28;20051;-58
2022/06/01 12:17:29;;;;;;;;;;;21.40;62.10;;;;;;5070864;28;20098;-57
2022/06/01 12:20:37;;;;;;;10.13;2.40;;;21.40;62.10;;;;;;5058947;28;19921;-58
2022/06/01 12:28:52;;;;;;;8.80;2.30;;;21.50;62.20;;;;;;5064794;28;20041;-58
2022/06/01 12:31:20;;;;;;;;;;;21.50;62.20;;;;;;5065371;28;20044;-60
2022/06/01 12:33:59;;;;;;;;;;;21.50;62.20;;;;;;5059056;28;19953;-60
2022/06/01 12:36:27;;;;;;;8.65;2.25;;;21.50;62.10;;;;;;5048417;28;20003;-59
2022/06/01 12:38:53;;;;;;;8.27;2.03;;;21.60;62.10;;;;;;5048127;28;20048;-59
2022/06/01 12:41:20;;;;;;;8.50;2.40;;;21.60;62.00;;;;;;5062817;28;20045;-59
2022/06/01 12:43:54;;;;;;;6.90;1.75;;;21.60;62.00;;;;;;5066707;28;20495;-60
2022/06/01 12:46:31;;;;;;;7.13;1.88;;;21.70;62.10;;;;;;5077536;28;20067;-59
2022/06/01 12:49:36;;;;;;;5.28;1.42;;;21.70;62.30;;;;;;5060986;28;20396;-60
2022/06/01 12:52:19;;;;;;;9.18;1.58;;;21.70;62.30;;;;;;5062593;28;20055;-61
2022/06/01 12:54:51;;;;;;;7.35;1.40;;;21.80;62.30;;;;;;5060496;28;20124;-59
2022/06/01 12:57:27;;;;;;;7.65;1.60;;;21.90;62.20;;;;;;5060474;28;20095;-59
2022/06/01 13:00:00;;;;;;;8.20;1.35;;;22.00;62.30;;;;;;5012585;28;20051;-67
2022/06/01 13:02:27;;;;;;;8.88;1.67;;;22.10;62.20;;;;;;5055192;28;20095;-59
2022/06/01 13:04:54;;;;;;;8.52;1.75;;;22.10;62.10;;;;;;5064481;28;20480;-59
2022/06/01 13:07:20;;;;;;;7.93;1.50;;;22.20;62.10;;;;;;5061028;28;20471;-60
2022/06/01 13:09:46;;;;;;;5.85;1.30;;;22.20;62.00;;;;;;5061177;28;20037;-60
2022/06/01 13:12:16;;;;;;;2.78;0.90;;;22.20;61.90;;;;;;5079408;28;20462;-61
2022/06/01 13:14:41;;;;;;;7.10;1.45;;;22.20;61.70;;;;;;5063184;28;20045;-61
2022/06/01 13:17:16;;;;;;;3.83;0.90;;;22.20;61.60;;;;;;5063397;28;20138;-61
2022/06/01 13:19:42;;;;;;;3.25;0.90;;;22.10;61.00;;;;;;5059779;28;20045;-61
2022/06/01 13:22:09;;;;;;;2.13;0.80;;;22.10;60.40;;;;;;5062320;28;20055;-61
2022/06/01 13:24:42;;;;;;;3.47;0.80;;;22.00;60.10;;;;;;5058421;28;20404;-61
2022/06/01 13:27:08;;;;;;;7.55;0.93;;;22.10;59.70;;;;;;5062881;28;20041;-63
2022/06/01 13:29:40;;;;;;;3.58;0.50;;;22.00;59.60;;;;;;5062544;28;20044;-62
2022/06/01 13:32:07;;;;;;;3.08;0.73;;;22.10;59.60;;;;;;5068556;28;20041;-62